sensor_id;sensor_type;location;lat;lon;timestamp;pressure;altitude;pressure_sealevel;temperature;humidity
23733;BME280;12047;53.450;-2.286;2023-04-26T00:03:23;101597.41;;;12.64;69.68
23733;BME280;12047;53.450;-2.286;2023-04-26T00:08:24;101594.63;;;12.65;69.60
23733;BME280;12047;53.450;-2.286;2023-04-26T00:13:24;101597.81;;;12.59;70.28
23733;BME280;12047;53.450;-2.286;2023-04-26T00:18:25;101593.66;;;12.66;70.75
23733;BME280;12047;53.450;-2.286;2023-04-26T00:23:25;101589.41;;;12.43;71.59
23733;BME280;12047;53.450;-2.286;2023-04-26T00:28:27;101586.97;;;11.98;72.79
23733;BME280;12047;53.450;-2.286;2023-04-26T00:33:28;101576.38;;;12.19;73.41
23733;BME280;12047;53.450;-2.286;2023-04-26T00:38:29;101584.31;;;12.51;73.23
23733;BME280;12047;53.450;-2.286;2023-04-26T00:43:30;101574.72;;;12.80;74.06
23733;BME280;12047;53.450;-2.286;2023-04-26T00:48:32;101573.84;;;12.17;76.15
23733;BME280;12047;53.450;-2.286;2023-04-26T00:53:32;101555.78;;;12.74;76.17
23733;BME280;12047;53.450;-2.286;2023-04-26T00:58:36;101550.69;;;12.61;77.19
23733;BME280;12047;53.450;-2.286;2023-04-26T01:03:37;101544.19;;;12.54;78.35
23733;BME280;12047;53.450;-2.286;2023-04-26T01:08:38;101540.22;;;12.07;80.21
23733;BME280;12047;53.450;-2.286;2023-04-26T01:13:39;101540.19;;;11.86;82.90
23733;BME280;12047;53.450;-2.286;2023-04-26T01:18:41;101542.41;;;12.22;83.33
23733;BME280;12047;53.450;-2.286;2023-04-26T01:23:42;101529.25;;;12.00;86.29
23733;BME280;12047;53.450;-2.286;2023-04-26T01:28:42;101533.66;;;12.73;85.18
23733;BME280;12047;53.450;-2.286;2023-04-26T01:33:43;101526.00;;;12.17;88.15
23733;BME280;12047;53.450;-2.286;2023-04-26T01:38:43;101524.56;;;12.13;90.32
23733;BME280;12047;53.450;-2.286;2023-04-26T01:43:43;101524.50;;;12.66;88.91
23733;BME280;12047;53.450;-2.286;2023-04-26T01:48:44;101524.41;;;12.05;90.22
23733;BME280;12047;53.450;-2.286;2023-04-26T01:53:44;101526.84;;;12.39;88.63
23733;BME280;12047;53.450;-2.286;2023-04-26T01:58:45;101524.97;;;12.71;87.83
23733;BME280;12047;53.450;-2.286;2023-04-26T02:03:45;101524.56;;;13.06;86.74
23733;BME280;12047;53.450;-2.286;2023-04-26T02:08:46;101515.91;;;12.11;89.45
23733;BME280;12047;53.450;-2.286;2023-04-26T02:13:46;101516.97;;;12.71;88.13
23733;BME280;12047;53.450;-2.286;2023-04-26T02:18:47;101502.69;;;12.21;89.33
23733;BME280;12047;53.450;-2.286;2023-04-26T02:23:52;101509.19;;;13.10;86.80
23733;BME280;12047;53.450;-2.286;2023-04-26T02:28:52;101505.22;;;12.43;87.54
23733;BME280;12047;53.450;-2.286;2023-04-26T02:33:53;101500.56;;;12.66;87.57
23733;BME280;12047;53.450;-2.286;2023-04-26T02:38:53;101494.31;;;11.84;89.80
23733;BME280;12047;53.450;-2.286;2023-04-26T02:43:54;101496.22;;;12.35;89.29
23733;BME280;12047;53.450;-2.286;2023-04-26T02:48:55;101490.09;;;12.44;87.75
23733;BME280;12047;53.450;-2.286;2023-04-26T02:53:55;101490.97;;;12.23;88.64
23733;BME280;12047;53.450;-2.286;2023-04-26T02:58:55;101483.22;;;12.41;87.44
23733;BME280;12047;53.450;-2.286;2023-04-26T03:03:56;101478.78;;;12.72;87.89
23733;BME280;12047;53.450;-2.286;2023-04-26T03:08:56;101489.00;;;13.47;84.17
23733;BME280;12047;53.450;-2.286;2023-04-26T03:13:57;101497.84;;;13.86;82.32
23733;BME280;12047;53.450;-2.286;2023-04-26T03:18:57;101485.91;;;13.61;83.67
23733;BME280;12047;53.450;-2.286;2023-04-26T03:23:58;101488.59;;;13.81;83.58
23733;BME280;12047;53.450;-2.286;2023-04-26T03:28:58;101496.00;;;13.87;83.84
23733;BME280;12047;53.450;-2.286;2023-04-26T03:33:58;101495.31;;;13.94;84.77
23733;BME280;12047;53.450;-2.286;2023-04-26T03:38:59;101489.19;;;13.15;86.80
23733;BME280;12047;53.450;-2.286;2023-04-26T03:43:59;101472.81;;;12.89;89.05
23733;BME280;12047;53.450;-2.286;2023-04-26T03:49:00;101475.69;;;13.86;84.36
23733;BME280;12047;53.450;-2.286;2023-04-26T03:54:00;101476.34;;;13.30;83.65
23733;BME280;12047;53.450;-2.286;2023-04-26T03:59:01;101463.53;;;13.14;86.04
23733;BME280;12047;53.450;-2.286;2023-04-26T04:04:01;101458.88;;;12.67;85.34
23733;BME280;12047;53.450;-2.286;2023-04-26T04:09:02;101470.16;;;13.20;85.98
23733;BME280;12047;53.450;-2.286;2023-04-26T04:14:06;101468.13;;;13.81;85.13
23733;BME280;12047;53.450;-2.286;2023-04-26T04:19:06;101460.72;;;13.85;84.98
23733;BME280;12047;53.450;-2.286;2023-04-26T04:24:08;101461.69;;;13.15;85.41
23733;BME280;12047;53.450;-2.286;2023-04-26T04:29:08;101465.47;;;13.81;83.60
23733;BME280;12047;53.450;-2.286;2023-04-26T04:34:09;101460.78;;;14.12;83.96
23733;BME280;12047;53.450;-2.286;2023-04-26T04:39:10;101464.88;;;13.87;84.31
23733;BME280;12047;53.450;-2.286;2023-04-26T04:44:15;101473.31;;;14.02;84.12
23733;BME280;12047;53.450;-2.286;2023-04-26T04:49:15;101473.16;;;13.55;85.35
23733;BME280;12047;53.450;-2.286;2023-04-26T04:54:18;101476.22;;;13.32;86.21
23733;BME280;12047;53.450;-2.286;2023-04-26T04:59:18;101480.28;;;12.65;87.62
23733;BME280;12047;53.450;-2.286;2023-04-26T05:04:19;101482.06;;;12.85;86.77
23733;BME280;12047;53.450;-2.286;2023-04-26T05:09:19;101492.09;;;13.72;86.25
23733;BME280;12047;53.450;-2.286;2023-04-26T05:14:20;101484.34;;;13.00;85.72
23733;BME280;12047;53.450;-2.286;2023-04-26T05:19:21;101491.09;;;12.73;87.51
23733;BME280;12047;53.450;-2.286;2023-04-26T05:24:21;101495.34;;;13.16;85.57
23733;BME280;12047;53.450;-2.286;2023-04-26T05:29:21;101485.75;;;12.43;88.32
23733;BME280;12047;53.450;-2.286;2023-04-26T05:34:23;101487.91;;;13.10;86.03
23733;BME280;12047;53.450;-2.286;2023-04-26T05:39:23;101479.88;;;13.00;85.26
23733;BME280;12047;53.450;-2.286;2023-04-26T05:44:24;101488.25;;;12.65;87.04
23733;BME280;12047;53.450;-2.286;2023-04-26T05:49:24;101487.59;;;13.03;87.13
23733;BME280;12047;53.450;-2.286;2023-04-26T05:54:25;101470.22;;;12.99;88.01
23733;BME280;12047;53.450;-2.286;2023-04-26T05:59:27;101487.75;;;13.51;86.82
23733;BME280;12047;53.450;-2.286;2023-04-26T06:04:30;101488.38;;;13.24;85.71
23733;BME280;12047;53.450;-2.286;2023-04-26T06:09:31;101491.47;;;13.30;84.66
23733;BME280;12047;53.450;-2.286;2023-04-26T06:14:32;101496.66;;;13.31;83.14
23733;BME280;12047;53.450;-2.286;2023-04-26T06:19:32;101495.00;;;13.00;83.99
23733;BME280;12047;53.450;-2.286;2023-04-26T06:24:33;101508.84;;;13.24;83.32
23733;BME280;12047;53.450;-2.286;2023-04-26T06:29:33;101503.34;;;13.16;84.12
23733;BME280;12047;53.450;-2.286;2023-04-26T06:34:33;101512.63;;;13.31;82.87
23733;BME280;12047;53.450;-2.286;2023-04-26T06:39:34;101512.38;;;13.04;82.22
23733;BME280;12047;53.450;-2.286;2023-04-26T06:44:36;101504.94;;;12.98;81.76
23733;BME280;12047;53.450;-2.286;2023-04-26T06:49:37;101509.53;;;13.26;80.73
23733;BME280;12047;53.450;-2.286;2023-04-26T06:54:38;101514.19;;;13.43;79.69
23733;BME280;12047;53.450;-2.286;2023-04-26T06:59:38;101511.44;;;14.32;76.11
23733;BME280;12047;53.450;-2.286;2023-04-26T07:04:38;101507.50;;;14.45;76.21
23733;BME280;12047;53.450;-2.286;2023-04-26T07:09:39;101500.22;;;13.89;77.59
23733;BME280;12047;53.450;-2.286;2023-04-26T07:14:42;101500.09;;;13.91;76.79
23733;BME280;12047;53.450;-2.286;2023-04-26T07:19:42;101510.19;;;14.07;73.56
23733;BME280;12047;53.450;-2.286;2023-04-26T07:24:43;101516.63;;;13.66;75.47
23733;BME280;12047;53.450;-2.286;2023-04-26T07:29:43;101497.38;;;14.49;71.90
23733;BME280;12047;53.450;-2.286;2023-04-26T07:34:44;101502.81;;;14.67;70.96
23733;BME280;12047;53.450;-2.286;2023-04-26T07:39:45;101500.59;;;14.52;70.19
23733;BME280;12047;53.450;-2.286;2023-04-26T07:44:49;101495.28;;;15.44;68.45
23733;BME280;12047;53.450;-2.286;2023-04-26T07:49:53;101492.44;;;15.01;67.84
23733;BME280;12047;53.450;-2.286;2023-04-26T07:54:53;101487.91;;;16.61;65.95
23733;BME280;12047;53.450;-2.286;2023-04-26T07:59:54;101496.50;;;15.32;66.41
23733;BME280;12047;53.450;-2.286;2023-04-26T08:04:55;101492.63;;;16.41;66.24
23733;BME280;12047;53.450;-2.286;2023-04-26T08:09:56;101487.81;;;16.96;62.29
23733;BME280;12047;53.450;-2.286;2023-04-26T08:14:59;101482.34;;;17.14;64.56
23733;BME280;12047;53.450;-2.286;2023-04-26T08:20:00;101482.22;;;17.24;63.41
23733;BME280;12047;53.450;-2.286;2023-04-26T08:25:00;101492.84;;;17.08;62.57
23733;BME280;12047;53.450;-2.286;2023-04-26T08:30:01;101489.22;;;16.83;63.24
23733;BME280;12047;53.450;-2.286;2023-04-26T08:35:01;101488.13;;;16.93;62.41
23733;BME280;12047;53.450;-2.286;2023-04-26T08:40:05;101491.00;;;17.50;61.48
23733;BME280;12047;53.450;-2.286;2023-04-26T08:45:09;101488.41;;;17.99;63.53
23733;BME280;12047;53.450;-2.286;2023-04-26T08:50:14;101479.94;;;18.59;58.83
23733;BME280;12047;53.450;-2.286;2023-04-26T08:55:16;101480.56;;;18.85;59.34
23733;BME280;12047;53.450;-2.286;2023-04-26T09:00:17;101477.94;;;18.69;60.41
23733;BME280;12047;53.450;-2.286;2023-04-26T09:05:19;101473.91;;;19.97;56.85
23733;BME280;12047;53.450;-2.286;2023-04-26T09:10:23;101479.59;;;19.48;58.10
23733;BME280;12047;53.450;-2.286;2023-04-26T09:15:25;101479.59;;;19.48;57.37
23733;BME280;12047;53.450;-2.286;2023-04-26T09:20:28;101486.72;;;19.33;58.00
23733;BME280;12047;53.450;-2.286;2023-04-26T09:25:30;101493.44;;;19.68;56.93
23733;BME280;12047;53.450;-2.286;2023-04-26T09:30:37;101482.63;;;19.99;54.82
23733;BME280;12047;53.450;-2.286;2023-04-26T09:35:42;101491.25;;;20.09;55.78
23733;BME280;12047;53.450;-2.286;2023-04-26T09:40:45;101482.44;;;19.55;56.56
23733;BME280;12047;53.450;-2.286;2023-04-26T09:45:49;101482.91;;;19.81;54.15
23733;BME280;12047;53.450;-2.286;2023-04-26T09:51:08;101478.09;;;20.81;49.97
23733;BME280;12047;53.450;-2.286;2023-04-26T10:01:13;101479.78;;;19.47;50.23
23733;BME280;12047;53.450;-2.286;2023-04-26T10:06:15;101475.81;;;19.88;50.09
23733;BME280;12047;53.450;-2.286;2023-04-26T10:11:17;101475.03;;;19.80;51.11
23733;BME280;12047;53.450;-2.286;2023-04-26T10:16:19;101471.63;;;19.32;50.84
23733;BME280;12047;53.450;-2.286;2023-04-26T10:21:26;101457.50;;;21.03;46.99
23733;BME280;12047;53.450;-2.286;2023-04-26T10:26:53;101457.91;;;20.18;49.91
23733;BME280;12047;53.450;-2.286;2023-04-26T10:37:12;101447.44;;;19.32;48.32
23733;BME280;12047;53.450;-2.286;2023-04-26T10:42:24;101438.53;;;19.31;49.90
23733;BME280;12047;53.450;-2.286;2023-04-26T10:47:34;101435.66;;;19.64;49.97
23733;BME280;12047;53.450;-2.286;2023-04-26T10:52:38;101432.72;;;20.11;49.62
23733;BME280;12047;53.450;-2.286;2023-04-26T10:57:58;101431.16;;;21.05;45.48
23733;BME280;12047;53.450;-2.286;2023-04-26T11:03:02;101431.69;;;19.29;48.27
23733;BME280;12047;53.450;-2.286;2023-04-26T11:08:23;101434.09;;;19.47;48.09
23733;BME280;12047;53.450;-2.286;2023-04-26T11:13:24;101428.78;;;19.61;48.50
23733;BME280;12047;53.450;-2.286;2023-04-26T11:18:27;101423.94;;;19.80;45.23
23733;BME280;12047;53.450;-2.286;2023-04-26T11:23:29;101430.91;;;18.81;46.55
23733;BME280;12047;53.450;-2.286;2023-04-26T11:28:37;101429.41;;;19.41;46.27
23733;BME280;12047;53.450;-2.286;2023-04-26T11:33:39;101431.72;;;19.75;46.68
23733;BME280;12047;53.450;-2.286;2023-04-26T11:38:40;101424.47;;;20.50;46.63
23733;BME280;12047;53.450;-2.286;2023-04-26T11:43:41;101428.63;;;19.32;46.85
23733;BME280;12047;53.450;-2.286;2023-04-26T11:48:42;101424.47;;;19.29;48.07
23733;BME280;12047;53.450;-2.286;2023-04-26T11:53:42;101421.94;;;19.96;49.15
23733;BME280;12047;53.450;-2.286;2023-04-26T11:58:47;101429.25;;;19.88;47.30
23733;BME280;12047;53.450;-2.286;2023-04-26T12:03:52;101420.22;;;20.33;47.80
23733;BME280;12047;53.450;-2.286;2023-04-26T12:08:55;101426.47;;;18.96;47.30
23733;BME280;12047;53.450;-2.286;2023-04-26T12:13:57;101414.53;;;20.51;46.46
23733;BME280;12047;53.450;-2.286;2023-04-26T12:18:58;101416.13;;;20.08;45.10
23733;BME280;12047;53.450;-2.286;2023-04-26T12:23:59;101415.59;;;19.75;47.13
23733;BME280;12047;53.450;-2.286;2023-04-26T12:29:00;101414.31;;;20.37;45.56
23733;BME280;12047;53.450;-2.286;2023-04-26T12:34:01;101410.06;;;20.58;45.18
23733;BME280;12047;53.450;-2.286;2023-04-26T12:39:04;101414.81;;;21.06;46.84
23733;BME280;12047;53.450;-2.286;2023-04-26T12:44:06;101410.47;;;20.17;45.92
23733;BME280;12047;53.450;-2.286;2023-04-26T12:49:07;101419.72;;;19.31;46.41
23733;BME280;12047;53.450;-2.286;2023-04-26T12:54:08;101424.97;;;20.31;44.79
23733;BME280;12047;53.450;-2.286;2023-04-26T12:59:08;101417.38;;;18.58;43.27
23733;BME280;12047;53.450;-2.286;2023-04-26T13:04:09;101422.47;;;19.54;46.01
23733;BME280;12047;53.450;-2.286;2023-04-26T13:09:09;101425.66;;;20.48;46.37
23733;BME280;12047;53.450;-2.286;2023-04-26T13:14:12;101432.06;;;19.49;47.36
23733;BME280;12047;53.450;-2.286;2023-04-26T13:19:12;101427.16;;;20.13;47.97
23733;BME280;12047;53.450;-2.286;2023-04-26T13:24:13;101425.19;;;19.46;47.02
23733;BME280;12047;53.450;-2.286;2023-04-26T13:29:13;101434.63;;;19.88;47.47
23733;BME280;12047;53.450;-2.286;2023-04-26T13:34:14;101433.75;;;19.73;45.46
23733;BME280;12047;53.450;-2.286;2023-04-26T13:39:14;101436.78;;;19.92;46.59
23733;BME280;12047;53.450;-2.286;2023-04-26T13:44:15;101435.41;;;19.20;47.38
23733;BME280;12047;53.450;-2.286;2023-04-26T13:49:16;101438.59;;;19.54;46.83
23733;BME280;12047;53.450;-2.286;2023-04-26T13:54:17;101423.34;;;20.07;46.28
23733;BME280;12047;53.450;-2.286;2023-04-26T13:59:18;101428.91;;;20.05;47.28
23733;BME280;12047;53.450;-2.286;2023-04-26T14:04:18;101427.84;;;18.37;47.47
23733;BME280;12047;53.450;-2.286;2023-04-26T14:09:19;101428.72;;;19.47;47.15
23733;BME280;12047;53.450;-2.286;2023-04-26T14:14:19;101423.63;;;18.98;46.66
23733;BME280;12047;53.450;-2.286;2023-04-26T14:19:20;101418.72;;;20.01;45.51
23733;BME280;12047;53.450;-2.286;2023-04-26T14:24:21;101434.09;;;19.16;45.55
23733;BME280;12047;53.450;-2.286;2023-04-26T14:29:21;101428.94;;;19.83;44.94
23733;BME280;12047;53.450;-2.286;2023-04-26T14:34:22;101428.22;;;19.43;45.55
23733;BME280;12047;53.450;-2.286;2023-04-26T14:39:22;101425.13;;;18.53;45.38
23733;BME280;12047;53.450;-2.286;2023-04-26T14:44:23;101417.53;;;18.57;46.16
23733;BME280;12047;53.450;-2.286;2023-04-26T14:49:24;101419.69;;;18.06;47.58
23733;BME280;12047;53.450;-2.286;2023-04-26T14:54:25;101413.06;;;18.41;47.66
23733;BME280;12047;53.450;-2.286;2023-04-26T14:59:25;101409.94;;;18.29;46.90
23733;BME280;12047;53.450;-2.286;2023-04-26T15:04:29;101406.22;;;19.17;46.60
23733;BME280;12047;53.450;-2.286;2023-04-26T15:09:29;101404.75;;;19.06;46.23
23733;BME280;12047;53.450;-2.286;2023-04-26T15:14:30;101400.59;;;17.93;47.34
23733;BME280;12047;53.450;-2.286;2023-04-26T15:19:30;101390.72;;;18.65;46.47
23733;BME280;12047;53.450;-2.286;2023-04-26T15:24:35;101392.34;;;19.59;46.25
23733;BME280;12047;53.450;-2.286;2023-04-26T15:29:36;101387.22;;;18.48;46.98
23733;BME280;12047;53.450;-2.286;2023-04-26T15:34:40;101390.59;;;19.43;47.48
23733;BME280;12047;53.450;-2.286;2023-04-26T15:39:42;101382.88;;;19.86;46.39
23733;BME280;12047;53.450;-2.286;2023-04-26T15:44:43;101382.94;;;20.59;45.42
23733;BME280;12047;53.450;-2.286;2023-04-26T15:49:43;101381.72;;;20.03;45.21
23733;BME280;12047;53.450;-2.286;2023-04-26T15:54:44;101381.66;;;20.41;45.79
23733;BME280;12047;53.450;-2.286;2023-04-26T15:59:45;101372.66;;;20.48;45.63
23733;BME280;12047;53.450;-2.286;2023-04-26T16:04:50;101372.94;;;20.38;44.82
23733;BME280;12047;53.450;-2.286;2023-04-26T16:09:51;101386.41;;;20.38;44.86
23733;BME280;12047;53.450;-2.286;2023-04-26T16:14:51;101374.88;;;20.59;44.39
23733;BME280;12047;53.450;-2.286;2023-04-26T16:19:52;101384.88;;;21.16;44.25
23733;BME280;12047;53.450;-2.286;2023-04-26T16:24:52;101378.25;;;20.97;52.31
23733;BME280;12047;53.450;-2.286;2023-04-26T16:29:53;101385.09;;;19.36;44.07
23733;BME280;12047;53.450;-2.286;2023-04-26T16:34:53;101394.28;;;19.50;44.75
23733;BME280;12047;53.450;-2.286;2023-04-26T16:39:54;101393.91;;;20.43;43.99
23733;BME280;12047;53.450;-2.286;2023-04-26T16:44:55;101396.66;;;20.79;45.40
23733;BME280;12047;53.450;-2.286;2023-04-26T16:49:55;101397.81;;;21.63;45.70
23733;BME280;12047;53.450;-2.286;2023-04-26T16:54:56;101392.00;;;20.88;44.87
23733;BME280;12047;53.450;-2.286;2023-04-26T16:59:57;101388.84;;;19.96;43.38
23733;BME280;12047;53.450;-2.286;2023-04-26T17:04:57;101384.28;;;20.85;44.06
23733;BME280;12047;53.450;-2.286;2023-04-26T17:09:58;101379.75;;;19.59;45.09
23733;BME280;12047;53.450;-2.286;2023-04-26T17:14:58;101394.09;;;21.07;43.28
23733;BME280;12047;53.450;-2.286;2023-04-26T17:19:59;101382.75;;;19.11;44.47
23733;BME280;12047;53.450;-2.286;2023-04-26T17:25:00;101378.84;;;20.19;44.37
23733;BME280;12047;53.450;-2.286;2023-04-26T17:30:00;101379.28;;;20.96;44.06
23733;BME280;12047;53.450;-2.286;2023-04-26T17:35:04;101377.53;;;20.15;44.05
23733;BME280;12047;53.450;-2.286;2023-04-26T17:40:06;101381.81;;;19.49;44.26
23733;BME280;12047;53.450;-2.286;2023-04-26T17:45:07;101374.47;;;19.43;45.48
23733;BME280;12047;53.450;-2.286;2023-04-26T17:50:08;101371.22;;;20.08;45.80
23733;BME280;12047;53.450;-2.286;2023-04-26T17:55:08;101367.81;;;19.08;45.87
23733;BME280;12047;53.450;-2.286;2023-04-26T18:00:09;101375.59;;;18.72;46.06
23733;BME280;12047;53.450;-2.286;2023-04-26T18:05:10;101372.31;;;18.85;46.06
23733;BME280;12047;53.450;-2.286;2023-04-26T18:10:11;101363.38;;;19.46;46.17
23733;BME280;12047;53.450;-2.286;2023-04-26T18:15:12;101365.78;;;18.40;46.24
23733;BME280;12047;53.450;-2.286;2023-04-26T18:20:13;101361.66;;;18.21;46.21
23733;BME280;12047;53.450;-2.286;2023-04-26T18:25:13;101362.25;;;18.87;46.05
23733;BME280;12047;53.450;-2.286;2023-04-26T18:30:14;101360.72;;;18.92;46.36
23733;BME280;12047;53.450;-2.286;2023-04-26T18:35:15;101352.09;;;19.28;45.63
23733;BME280;12047;53.450;-2.286;2023-04-26T18:40:15;101355.81;;;18.65;46.56
23733;BME280;12047;53.450;-2.286;2023-04-26T18:45:16;101362.31;;;18.79;46.30
23733;BME280;12047;53.450;-2.286;2023-04-26T18:50:16;101366.06;;;17.98;46.95
23733;BME280;12047;53.450;-2.286;2023-04-26T18:55:17;101355.97;;;19.02;46.39
23733;BME280;12047;53.450;-2.286;2023-04-26T19:00:17;101368.09;;;17.80;47.84
23733;BME280;12047;53.450;-2.286;2023-04-26T19:05:18;101363.78;;;18.34;47.29
23733;BME280;12047;53.450;-2.286;2023-04-26T19:10:19;101356.19;;;19.16;47.46
23733;BME280;12047;53.450;-2.286;2023-04-26T19:15:20;101361.22;;;18.49;48.47
23733;BME280;12047;53.450;-2.286;2023-04-26T19:20:21;101368.56;;;18.63;49.56
23733;BME280;12047;53.450;-2.286;2023-04-26T19:25:21;101369.06;;;18.58;49.52
23733;BME280;12047;53.450;-2.286;2023-04-26T19:30:23;101377.13;;;18.66;50.61
23733;BME280;12047;53.450;-2.286;2023-04-26T19:35:24;101391.69;;;17.44;51.40
23733;BME280;12047;53.450;-2.286;2023-04-26T19:40:24;101385.81;;;18.13;51.11
23733;BME280;12047;53.450;-2.286;2023-04-26T19:45:25;101391.84;;;18.07;50.90
23733;BME280;12047;53.450;-2.286;2023-04-26T19:50:25;101396.13;;;17.03;52.02
23733;BME280;12047;53.450;-2.286;2023-04-26T19:55:26;101403.06;;;17.62;51.99
23733;BME280;12047;53.450;-2.286;2023-04-26T20:00:28;101400.09;;;16.90;53.06
23733;BME280;12047;53.450;-2.286;2023-04-26T20:05:29;101405.31;;;17.00;53.29
23733;BME280;12047;53.450;-2.286;2023-04-26T20:10:31;101407.88;;;17.18;53.67
23733;BME280;12047;53.450;-2.286;2023-04-26T20:15:32;101409.91;;;16.74;54.44
23733;BME280;12047;53.450;-2.286;2023-04-26T20:20:33;101416.22;;;16.64;55.01
23733;BME280;12047;53.450;-2.286;2023-04-26T20:25:33;101417.81;;;16.23;54.95
23733;BME280;12047;53.450;-2.286;2023-04-26T20:30:34;101428.28;;;16.43;55.55
23733;BME280;12047;53.450;-2.286;2023-04-26T20:35:35;101436.47;;;16.15;56.18
23733;BME280;12047;53.450;-2.286;2023-04-26T20:40:35;101440.34;;;16.73;56.11
23733;BME280;12047;53.450;-2.286;2023-04-26T20:45:36;101447.00;;;16.17;56.55
23733;BME280;12047;53.450;-2.286;2023-04-26T20:50:37;101446.22;;;16.50;56.29
23733;BME280;12047;53.450;-2.286;2023-04-26T20:55:37;101456.41;;;16.47;57.10
23733;BME280;12047;53.450;-2.286;2023-04-26T21:00:38;101467.28;;;16.02;57.82
23733;BME280;12047;53.450;-2.286;2023-04-26T21:05:39;101471.81;;;15.65;58.56
23733;BME280;12047;53.450;-2.286;2023-04-26T21:10:40;101463.72;;;15.57;59.03
23733;BME280;12047;53.450;-2.286;2023-04-26T21:15:40;101472.41;;;15.59;59.52
23733;BME280;12047;53.450;-2.286;2023-04-26T21:20:41;101467.19;;;15.13;60.75
23733;BME280;12047;53.450;-2.286;2023-04-26T21:25:48;101462.97;;;14.92;61.36
23733;BME280;12047;53.450;-2.286;2023-04-26T21:30:49;101460.53;;;15.26;61.06
23733;BME280;12047;53.450;-2.286;2023-04-26T21:35:49;101470.38;;;15.26;61.37
23733;BME280;12047;53.450;-2.286;2023-04-26T21:40:50;101468.72;;;15.43;61.26
23733;BME280;12047;53.450;-2.286;2023-04-26T21:45:53;101467.13;;;15.32;62.89
23733;BME280;12047;53.450;-2.286;2023-04-26T21:50:54;101462.44;;;14.42;64.13
23733;BME280;12047;53.450;-2.286;2023-04-26T21:55:55;101467.81;;;15.07;64.50
23733;BME280;12047;53.450;-2.286;2023-04-26T22:01:05;101464.22;;;15.43;64.89
23733;BME280;12047;53.450;-2.286;2023-04-26T22:06:07;101470.47;;;15.34;65.35
23733;BME280;12047;53.450;-2.286;2023-04-26T22:11:08;101471.25;;;15.17;66.28
23733;BME280;12047;53.450;-2.286;2023-04-26T22:16:09;101473.00;;;14.81;66.97
23733;BME280;12047;53.450;-2.286;2023-04-26T22:21:09;101471.28;;;14.52;68.69
23733;BME280;12047;53.450;-2.286;2023-04-26T22:26:10;101478.00;;;14.37;69.51
23733;BME280;12047;53.450;-2.286;2023-04-26T22:31:11;101483.06;;;14.50;70.11
23733;BME280;12047;53.450;-2.286;2023-04-26T22:36:12;101475.66;;;14.24;72.23
23733;BME280;12047;53.450;-2.286;2023-04-26T22:41:12;101471.59;;;14.20;72.86
23733;BME280;12047;53.450;-2.286;2023-04-26T22:46:13;101468.25;;;13.99;75.05
23733;BME280;12047;53.450;-2.286;2023-04-26T22:51:13;101454.47;;;14.23;75.39
23733;BME280;12047;53.450;-2.286;2023-04-26T22:56:14;101457.03;;;14.05;76.19
23733;BME280;12047;53.450;-2.286;2023-04-26T23:01:15;101462.69;;;14.39;75.63
23733;BME280;12047;53.450;-2.286;2023-04-26T23:06:15;101467.41;;;14.08;76.46
23733;BME280;12047;53.450;-2.286;2023-04-26T23:11:16;101468.63;;;14.33;76.84
23733;BME280;12047;53.450;-2.286;2023-04-26T23:16:18;101466.13;;;14.12;77.62
23733;BME280;12047;53.450;-2.286;2023-04-26T23:21:18;101482.84;;;13.95;79.10
23733;BME280;12047;53.450;-2.286;2023-04-26T23:26:18;101480.03;;;13.87;80.45
23733;BME280;12047;53.450;-2.286;2023-04-26T23:31:19;101487.50;;;13.83;80.81
23733;BME280;12047;53.450;-2.286;2023-04-26T23:36:20;101488.03;;;13.87;82.01
23733;BME280;12047;53.450;-2.286;2023-04-26T23:41:20;101496.88;;;13.78;83.45
23733;BME280;12047;53.450;-2.286;2023-04-26T23:46:21;101507.53;;;13.97;83.57
23733;BME280;12047;53.450;-2.286;2023-04-26T23:51:21;101501.72;;;14.40;82.55
23733;BME280;12047;53.450;-2.286;2023-04-26T23:56:22;101510.75;;;14.01;83.57
